createdAt,value
2018-12-17T00:02:03.374Z,3.10
2018-12-17T00:04:32.849Z,3.00
2018-12-17T00:07:01.622Z,3.00
2018-12-17T00:09:30.431Z,3.10
2018-12-17T00:11:59.300Z,3.00
2018-12-17T00:14:28.075Z,3.00
2018-12-17T00:16:57.072Z,3.00
2018-12-17T00:19:25.698Z,2.90
2018-12-17T00:21:54.555Z,2.90
2018-12-17T00:24:23.369Z,2.90
2018-12-17T00:26:51.978Z,2.90
2018-12-17T00:29:20.767Z,2.90
2018-12-17T00:31:49.367Z,3.00
2018-12-17T00:34:18.059Z,3.00
2018-12-17T00:36:46.694Z,3.00
2018-12-17T00:39:15.363Z,3.00
2018-12-17T00:41:44.016Z,3.00
2018-12-17T00:44:12.729Z,3.00
2018-12-17T00:46:41.406Z,3.00
2018-12-17T00:49:10.106Z,3.00
2018-12-17T00:51:38.730Z,3.00
2018-12-17T00:54:07.478Z,3.10
2018-12-17T00:56:36.509Z,3.10
2018-12-17T00:59:05.192Z,3.20
2018-12-17T01:01:34.063Z,3.20
2018-12-17T01:04:02.725Z,3.20
2018-12-17T01:06:31.496Z,3.20
2018-12-17T01:09:00.062Z,3.20
2018-12-17T01:11:31.047Z,3.20
2018-12-17T01:14:02.154Z,3.20
2018-12-17T01:16:31.744Z,3.30
2018-12-17T01:19:01.890Z,3.30
2018-12-17T01:21:31.131Z,3.30
2018-12-17T01:24:00.684Z,3.30
2018-12-17T01:26:30.864Z,3.40
2018-12-17T01:28:59.526Z,3.40
2018-12-17T01:31:28.541Z,3.40
2018-12-17T01:33:57.229Z,3.40
2018-12-17T01:36:28.269Z,3.40
2018-12-17T01:38:59.185Z,3.50
2018-12-17T01:41:29.291Z,3.40
2018-12-17T01:43:59.122Z,3.40
2018-12-17T01:46:28.327Z,3.40
2018-12-17T01:48:57.600Z,3.40
2018-12-17T01:51:28.789Z,3.40
2018-12-17T01:53:58.081Z,3.40
2018-12-17T01:56:29.003Z,3.40
2018-12-17T01:59:01.663Z,3.40
2018-12-17T02:01:32.143Z,3.40
2018-12-17T02:24:09.003Z,3.40
2018-12-17T02:26:38.482Z,3.40
2018-12-17T02:29:07.858Z,3.40
2018-12-17T02:31:39.967Z,3.50
2018-12-17T02:34:08.586Z,3.50
2018-12-17T02:36:37.241Z,3.50
2018-12-17T02:39:07.997Z,3.60
2018-12-17T02:41:36.499Z,3.60
2018-12-17T02:44:05.448Z,3.60
2018-12-17T02:46:34.056Z,3.70
2018-12-17T02:49:02.594Z,3.70
2018-12-17T02:51:31.245Z,3.70
2018-12-17T02:53:59.983Z,3.60
2018-12-17T02:56:28.621Z,3.60
2018-12-17T02:58:57.283Z,3.70
2018-12-17T03:01:25.851Z,3.60
2018-12-17T03:03:54.411Z,3.60
2018-12-17T03:06:23.147Z,3.60
2018-12-17T03:08:51.690Z,3.60
2018-12-17T03:11:20.380Z,3.60
2018-12-17T03:13:48.927Z,3.60
2018-12-17T03:16:17.471Z,3.60
2018-12-17T03:18:45.997Z,3.60
2018-12-17T03:21:14.499Z,3.60
2018-12-17T03:23:43.105Z,3.60
2018-12-17T03:26:11.784Z,3.60
2018-12-17T03:28:40.378Z,3.60
2018-12-17T03:31:09.011Z,3.60
2018-12-17T03:33:37.600Z,3.60
2018-12-17T03:36:06.219Z,3.60
2018-12-17T03:38:37.834Z,3.60
2018-12-17T03:41:06.541Z,3.60
2018-12-17T03:43:35.120Z,3.60
2018-12-17T03:46:03.766Z,3.60
2018-12-17T03:48:32.393Z,3.70
2018-12-17T03:51:00.977Z,3.60
2018-12-17T03:53:29.574Z,3.70
2018-12-17T03:55:58.108Z,3.60
2018-12-17T03:58:26.806Z,3.70
2018-12-17T04:00:55.366Z,3.70
2018-12-17T04:03:24.057Z,3.60
2018-12-17T04:05:52.646Z,3.60
2018-12-17T04:08:21.306Z,3.60
2018-12-17T04:10:49.828Z,3.60
2018-12-17T04:13:18.427Z,3.60
2018-12-17T04:15:46.987Z,3.60
2018-12-17T04:18:15.529Z,3.70
2018-12-17T04:20:44.100Z,3.70
2018-12-17T04:23:12.904Z,3.70
2018-12-17T04:25:41.414Z,3.70
2018-12-17T04:28:11.040Z,3.70
2018-12-17T04:30:39.716Z,3.60
2018-12-17T04:33:08.270Z,3.60
2018-12-17T04:35:36.830Z,3.60
2018-12-17T04:38:05.456Z,3.60
2018-12-17T04:40:34.052Z,3.60
2018-12-17T04:43:02.591Z,3.60
2018-12-17T04:45:31.238Z,3.60
2018-12-17T04:47:59.836Z,3.60
2018-12-17T04:50:28.468Z,3.60
2018-12-17T04:52:56.984Z,3.60
2018-12-17T04:55:25.550Z,3.60
2018-12-17T04:57:54.575Z,3.60
2018-12-17T05:00:23.302Z,3.60
2018-12-17T05:02:51.861Z,3.70
2018-12-17T05:05:20.631Z,3.70
2018-12-17T05:07:49.226Z,3.70
2018-12-17T05:10:24.410Z,3.70
2018-12-17T05:12:52.997Z,3.70
2018-12-17T05:15:21.627Z,3.70
2018-12-17T05:17:50.251Z,3.70
2018-12-17T05:20:18.830Z,3.70
2018-12-17T05:22:47.452Z,3.70
2018-12-17T05:25:16.094Z,3.70
2018-12-17T05:27:44.660Z,3.70
2018-12-17T05:30:13.215Z,3.70
2018-12-17T05:32:41.855Z,3.70
2018-12-17T05:35:10.490Z,3.70
2018-12-17T05:37:39.022Z,3.80
2018-12-17T05:40:07.775Z,3.80
2018-12-17T05:42:36.338Z,3.80
2018-12-17T05:45:05.504Z,3.80
2018-12-17T05:47:34.200Z,3.80
2018-12-17T05:50:02.751Z,3.80
2018-12-17T05:52:31.279Z,3.80
2018-12-17T05:54:59.911Z,3.80
2018-12-17T05:57:28.451Z,3.80
2018-12-17T05:59:57.010Z,3.80
2018-12-17T06:02:25.550Z,3.80
2018-12-17T06:04:54.101Z,3.70
2018-12-17T06:07:22.646Z,3.80
2018-12-17T06:09:51.177Z,3.80
2018-12-17T06:12:19.740Z,3.80
2018-12-17T06:14:48.258Z,3.80
2018-12-17T06:17:16.847Z,3.80
2018-12-17T06:19:45.552Z,3.80
2018-12-17T06:22:14.150Z,3.80
2018-12-17T06:24:42.731Z,3.80
2018-12-17T06:27:11.318Z,3.80
2018-12-17T06:29:39.890Z,3.80
2018-12-17T06:32:08.430Z,3.80
2018-12-17T06:34:37.013Z,3.80
2018-12-17T06:37:05.588Z,3.80
2018-12-17T06:39:34.156Z,3.80
2018-12-17T06:42:02.686Z,3.80
2018-12-17T06:44:32.006Z,3.90
2018-12-17T06:47:00.547Z,3.90
2018-12-17T06:49:29.150Z,3.90
2018-12-17T06:51:58.112Z,3.90
2018-12-17T06:54:26.885Z,3.90
2018-12-17T06:56:55.465Z,3.80
2018-12-17T06:59:24.007Z,3.80
2018-12-17T07:01:52.976Z,3.80
2018-12-17T07:04:21.533Z,3.80
2018-12-17T07:06:50.088Z,3.80
2018-12-17T07:09:18.711Z,3.80
2018-12-17T07:11:47.278Z,3.90
2018-12-17T07:14:15.977Z,3.90
2018-12-17T07:16:44.526Z,4.00
2018-12-17T07:19:13.408Z,3.90
2018-12-17T07:21:42.165Z,3.90
2018-12-17T07:24:10.815Z,3.90
2018-12-17T07:26:39.363Z,3.90
2018-12-17T07:29:07.885Z,3.90
2018-12-17T07:31:36.407Z,3.90
2018-12-17T07:34:04.983Z,4.00
2018-12-17T07:36:33.616Z,4.00
2018-12-17T07:39:02.622Z,4.00
2018-12-17T07:41:31.218Z,3.90
2018-12-17T07:43:59.977Z,4.00
2018-12-17T07:46:28.514Z,4.10
2018-12-17T07:48:57.034Z,4.10
2018-12-17T07:51:25.675Z,4.00
2018-12-17T07:53:54.242Z,4.10
2018-12-17T07:56:22.763Z,4.10
2018-12-17T07:58:51.670Z,4.10
2018-12-17T08:01:20.264Z,4.10
2018-12-17T08:03:49.138Z,4.20
2018-12-17T08:06:18.174Z,4.20
2018-12-17T08:08:46.783Z,4.30
2018-12-17T08:11:15.348Z,4.20
2018-12-17T08:13:43.975Z,4.10
2018-12-17T08:16:12.594Z,4.10
2018-12-17T08:18:41.340Z,4.10
2018-12-17T08:21:10.988Z,4.10
2018-12-17T08:23:39.567Z,4.10
2018-12-17T08:26:08.220Z,4.10
2018-12-17T08:28:36.945Z,4.20
2018-12-17T08:31:05.665Z,4.20
2018-12-17T08:33:34.427Z,4.20
2018-12-17T08:36:03.189Z,4.20
2018-12-17T08:38:31.947Z,4.30
2018-12-17T08:41:00.627Z,4.30
2018-12-17T08:43:29.185Z,4.40
2018-12-17T08:45:57.778Z,4.40
2018-12-17T08:48:26.407Z,4.40
2018-12-17T08:50:55.113Z,4.40
2018-12-17T08:53:23.794Z,4.40
2018-12-17T08:55:52.545Z,4.40
2018-12-17T08:58:21.342Z,4.40
2018-12-17T09:00:49.991Z,4.50
2018-12-17T09:03:18.957Z,4.40
2018-12-17T09:05:47.848Z,4.50
2018-12-17T09:08:16.426Z,4.50
2018-12-17T09:10:46.236Z,4.50
2018-12-17T09:13:14.786Z,4.60
2018-12-17T09:15:43.440Z,4.50
2018-12-17T09:18:12.012Z,4.60
2018-12-17T09:20:40.671Z,4.60
2018-12-17T09:23:09.242Z,4.60
2018-12-17T09:25:38.301Z,4.60
2018-12-17T09:28:06.840Z,4.60
2018-12-17T09:30:41.266Z,4.60
2018-12-17T09:33:06.013Z,4.60
2018-12-17T09:35:34.620Z,4.60
2018-12-17T09:38:03.197Z,4.60
2018-12-17T09:40:32.322Z,4.60
2018-12-17T09:43:01.052Z,4.70
2018-12-17T09:45:29.669Z,4.70
2018-12-17T09:47:58.296Z,4.70
2018-12-17T09:50:26.971Z,4.60
2018-12-17T09:52:55.561Z,4.70
2018-12-17T09:55:24.123Z,4.70
2018-12-17T09:57:52.726Z,4.70
2018-12-17T10:00:25.338Z,4.70
2018-12-17T10:02:51.828Z,4.80
2018-12-17T10:05:20.472Z,4.80
2018-12-17T10:07:49.003Z,4.80
2018-12-17T10:10:17.659Z,4.80
2018-12-17T10:12:46.595Z,4.80
2018-12-17T10:15:15.646Z,4.80
2018-12-17T10:17:44.410Z,4.90
2018-12-17T10:20:12.973Z,4.90
2018-12-17T10:22:43.377Z,4.90
2018-12-17T10:25:12.171Z,4.90
2018-12-17T10:27:40.780Z,5.00
2018-12-17T10:30:09.595Z,5.00
2018-12-17T10:32:38.174Z,5.00
2018-12-17T10:35:06.856Z,5.00
2018-12-17T10:37:35.700Z,5.00
2018-12-17T10:40:05.099Z,5.00
2018-12-17T10:42:33.822Z,4.90
2018-12-17T10:45:02.465Z,5.00
2018-12-17T10:47:31.115Z,4.90
2018-12-17T10:49:59.812Z,5.00
2018-12-17T10:52:28.545Z,5.00
2018-12-17T10:54:57.186Z,5.00
2018-12-17T10:57:26.050Z,5.00
2018-12-17T10:59:54.858Z,5.00
2018-12-17T11:02:28.529Z,5.00
2018-12-17T11:05:02.444Z,5.10
2018-12-17T11:07:31.054Z,5.10
2018-12-17T11:09:59.763Z,5.10
2018-12-17T11:12:28.391Z,5.10
2018-12-17T11:14:56.881Z,5.10
2018-12-17T11:17:25.437Z,5.10
2018-12-17T11:19:54.023Z,5.10
2018-12-17T11:22:22.725Z,5.10
2018-12-17T11:24:51.279Z,5.10
2018-12-17T11:27:20.059Z,5.10
2018-12-17T11:29:48.915Z,5.10
2018-12-17T11:32:17.593Z,5.20
2018-12-17T11:34:46.209Z,5.10
2018-12-17T11:37:15.150Z,5.20
2018-12-17T11:39:43.816Z,5.20
2018-12-17T11:42:12.419Z,5.20
2018-12-17T11:44:40.969Z,5.20
2018-12-17T11:47:09.537Z,5.20
2018-12-17T11:49:38.193Z,5.20
2018-12-17T11:52:07.088Z,5.20
2018-12-17T11:54:35.701Z,5.20
2018-12-17T11:57:54.934Z,5.20
2018-12-17T12:00:25.699Z,5.20
2018-12-17T12:02:59.144Z,5.20
2018-12-17T12:05:25.177Z,5.20
2018-12-17T12:07:53.746Z,5.20
2018-12-17T12:10:22.335Z,5.20
2018-12-17T12:12:50.888Z,5.20
2018-12-17T12:15:19.412Z,5.10
2018-12-17T12:17:48.192Z,5.20
2018-12-17T12:20:16.790Z,5.20
2018-12-17T12:22:45.411Z,5.20
2018-12-17T12:25:14.401Z,5.20
2018-12-17T12:27:43.068Z,5.20
2018-12-17T12:30:12.032Z,5.20
2018-12-17T12:32:40.818Z,5.20
2018-12-17T12:35:11.433Z,5.20
2018-12-17T12:37:40.497Z,5.20
2018-12-17T12:40:09.572Z,5.20
2018-12-17T12:42:38.105Z,5.20
2018-12-17T12:45:07.638Z,5.30
2018-12-17T12:47:36.615Z,5.20
2018-12-17T12:50:06.635Z,5.20
2018-12-17T12:52:35.218Z,5.20
2018-12-17T12:55:03.985Z,5.20
2018-12-17T12:57:32.486Z,5.30
2018-12-17T13:00:01.046Z,5.30
2018-12-17T13:02:29.644Z,5.40
2018-12-17T13:04:58.275Z,5.50
2018-12-17T13:07:26.820Z,5.50
2018-12-17T13:09:55.341Z,5.50
2018-12-17T13:12:23.880Z,5.40
2018-12-17T13:14:52.506Z,5.40
2018-12-17T13:17:26.523Z,5.40
2018-12-17T13:19:55.126Z,5.40
2018-12-17T13:22:23.918Z,5.40
2018-12-17T13:24:52.431Z,5.40
2018-12-17T13:27:21.064Z,5.40
2018-12-17T13:29:49.629Z,5.40
2018-12-17T13:32:18.175Z,5.40
2018-12-17T13:34:46.920Z,5.40
2018-12-17T13:37:15.583Z,5.40
2018-12-17T13:39:44.103Z,5.40
2018-12-17T13:42:12.757Z,5.40
2018-12-17T13:44:41.436Z,5.40
2018-12-17T13:47:10.063Z,5.40
2018-12-17T13:49:38.612Z,5.50
2018-12-17T13:52:12.429Z,5.60
2018-12-17T13:54:40.975Z,5.60
2018-12-17T13:57:09.618Z,5.60
2018-12-17T13:59:38.254Z,5.60
2018-12-17T14:02:06.855Z,5.60
2018-12-17T14:04:35.438Z,5.60
2018-12-17T14:07:05.085Z,5.70
2018-12-17T14:09:37.906Z,5.60
2018-12-17T14:12:06.423Z,5.60
2018-12-17T14:14:35.011Z,5.60
2018-12-17T14:17:09.121Z,5.70
2018-12-17T14:19:40.031Z,5.60
2018-12-17T14:22:08.615Z,5.60
2018-12-17T14:24:37.674Z,5.60
2018-12-17T14:27:06.404Z,5.60
2018-12-17T14:29:34.967Z,5.50
2018-12-17T14:32:05.188Z,5.50
2018-12-17T14:34:33.960Z,5.50
2018-12-17T14:37:28.319Z,5.50
2018-12-17T14:40:16.346Z,5.50
2018-12-17T14:43:03.165Z,5.50
2018-12-17T14:45:42.967Z,5.50
2018-12-17T14:48:18.650Z,5.40
2018-12-17T14:50:48.306Z,5.50
2018-12-17T14:53:17.213Z,5.50
2018-12-17T14:55:46.642Z,5.50
2018-12-17T14:58:15.674Z,5.50
2018-12-17T15:00:44.509Z,5.50
2018-12-17T15:03:13.226Z,5.50
2018-12-17T15:05:41.992Z,5.60
2018-12-17T15:08:10.943Z,5.60
2018-12-17T15:10:39.776Z,5.60
2018-12-17T15:13:08.478Z,5.50
2018-12-17T15:15:37.226Z,5.60
2018-12-17T15:18:06.074Z,5.60
2018-12-17T15:20:34.996Z,5.50
2018-12-17T15:23:03.645Z,5.50
2018-12-17T15:25:32.366Z,5.50
2018-12-17T15:28:00.990Z,5.50
2018-12-17T15:30:29.789Z,5.60
2018-12-17T15:33:14.328Z,5.60
2018-12-17T15:35:43.147Z,5.60
2018-12-17T15:38:11.787Z,5.60
2018-12-17T15:40:40.515Z,5.60
2018-12-17T15:43:09.311Z,5.60
2018-12-17T15:45:38.264Z,5.60
2018-12-17T15:48:06.896Z,5.60
2018-12-17T15:50:35.528Z,5.60
2018-12-17T15:53:04.251Z,5.60
2018-12-17T15:55:32.926Z,5.70
2018-12-17T15:58:01.691Z,5.70
2018-12-17T16:00:30.316Z,5.70
2018-12-17T16:02:58.999Z,5.70
2018-12-17T16:05:27.902Z,5.70
2018-12-17T16:07:58.324Z,5.70
2018-12-17T16:10:27.458Z,5.70
2018-12-17T16:12:56.117Z,5.70
2018-12-17T16:15:25.382Z,5.70
2018-12-17T16:17:54.095Z,5.70
2018-12-17T16:20:22.739Z,5.70
2018-12-17T16:22:51.327Z,5.70
2018-12-17T16:25:20.140Z,5.70
2018-12-17T16:27:49.042Z,5.80
2018-12-17T16:30:20.665Z,5.80
2018-12-17T16:32:51.580Z,5.70
2018-12-17T16:35:20.354Z,5.80
2018-12-17T16:37:49.386Z,5.80
2018-12-17T16:40:18.321Z,5.80
2018-12-17T16:42:47.347Z,5.80
2018-12-17T16:45:16.163Z,5.80
2018-12-17T16:47:44.784Z,5.90
2018-12-17T16:50:13.473Z,6.00
2018-12-17T16:52:42.111Z,6.10
2018-12-17T16:55:10.731Z,6.00
2018-12-17T16:57:39.303Z,6.00
2018-12-17T17:00:10.047Z,5.90
2018-12-17T17:02:39.048Z,5.90
2018-12-17T17:05:08.577Z,5.90
2018-12-17T17:07:37.922Z,5.90
2018-12-17T17:10:09.212Z,6.00
2018-12-17T17:12:38.087Z,6.00
2018-12-17T17:15:10.214Z,5.90
2018-12-17T17:17:39.813Z,5.90
2018-12-17T17:20:09.807Z,5.90
2018-12-17T17:22:39.442Z,5.90
2018-12-17T17:25:08.870Z,5.90
2018-12-17T17:27:38.348Z,5.90
2018-12-17T17:30:08.621Z,5.80
2018-12-17T17:32:37.584Z,5.80
2018-12-17T17:35:06.730Z,5.80
2018-12-17T17:37:35.546Z,5.80
2018-12-17T17:40:05.343Z,5.80
2018-12-17T17:42:33.974Z,5.90
2018-12-17T17:45:02.766Z,5.90
2018-12-17T17:47:31.567Z,5.80
2018-12-17T17:50:00.548Z,5.80
2018-12-17T17:52:30.291Z,5.80
2018-12-17T17:55:03.057Z,5.80
2018-12-17T17:57:31.940Z,5.90
2018-12-17T18:00:00.621Z,5.90
2018-12-17T18:02:30.481Z,5.90
2018-12-17T18:04:59.219Z,5.80
2018-12-17T18:07:28.016Z,5.80
2018-12-17T18:09:56.770Z,5.80
2018-12-17T18:12:25.343Z,5.70
2018-12-17T18:14:53.963Z,5.70
2018-12-17T18:17:22.586Z,5.70
2018-12-17T18:19:51.694Z,5.60
2018-12-17T18:22:20.310Z,5.60
2018-12-17T18:24:48.972Z,5.60
2018-12-17T18:27:17.840Z,5.70
2018-12-17T18:29:46.922Z,5.70
2018-12-17T18:32:16.330Z,5.60
2018-12-17T18:34:44.992Z,5.60
2018-12-17T18:37:13.574Z,5.50
2018-12-17T18:39:42.452Z,5.50
2018-12-17T18:42:11.130Z,5.40
2018-12-17T18:44:40.436Z,5.40
2018-12-17T18:47:09.351Z,5.40
2018-12-17T18:49:37.994Z,5.30
2018-12-17T18:52:06.785Z,5.30
2018-12-17T18:54:35.473Z,5.40
2018-12-17T18:57:04.236Z,5.40
2018-12-17T18:59:32.913Z,5.50
2018-12-17T19:02:01.643Z,5.50
2018-12-17T19:04:30.391Z,5.50
2018-12-17T19:06:59.049Z,5.50
2018-12-17T19:09:27.673Z,5.50
2018-12-17T19:11:56.564Z,5.50
2018-12-17T19:14:25.260Z,5.50
2018-12-17T19:16:55.161Z,5.50
2018-12-17T19:19:23.981Z,5.40
2018-12-17T19:21:54.747Z,5.40
2018-12-17T19:24:23.356Z,5.40
2018-12-17T19:26:56.369Z,5.40
2018-12-17T19:29:24.980Z,5.50
2018-12-17T19:31:56.258Z,5.50
2018-12-17T19:34:31.378Z,5.50
2018-12-17T19:37:02.266Z,5.40
2018-12-17T19:39:32.874Z,5.50
2018-12-17T19:42:02.362Z,5.50
2018-12-17T19:44:32.808Z,5.50
2018-12-17T19:47:01.591Z,5.50
2018-12-17T19:49:30.434Z,5.60
2018-12-17T19:52:00.653Z,5.60
2018-12-17T19:54:29.698Z,5.60
2018-12-17T19:56:59.065Z,5.60
2018-12-17T19:59:28.109Z,5.60
2018-12-17T20:01:57.023Z,5.60
2018-12-17T20:04:25.729Z,5.60
2018-12-17T20:06:54.874Z,5.70
2018-12-17T20:09:23.540Z,5.80
2018-12-17T20:11:52.252Z,5.70
2018-12-17T20:14:20.999Z,5.70
2018-12-17T20:16:49.835Z,5.70
2018-12-17T20:19:24.043Z,5.70
2018-12-17T20:21:53.209Z,5.70
2018-12-17T20:24:21.969Z,5.70
2018-12-17T20:26:50.635Z,5.80
2018-12-17T20:29:26.258Z,5.70
2018-12-17T20:31:55.247Z,5.70
2018-12-17T20:34:23.949Z,5.70
2018-12-17T20:36:52.555Z,5.80
2018-12-17T20:39:26.221Z,5.80
2018-12-17T20:41:54.959Z,5.80
2018-12-17T20:44:23.525Z,5.70
2018-12-17T20:46:52.179Z,5.70
2018-12-17T20:49:20.737Z,5.60
2018-12-17T20:51:49.539Z,5.60
2018-12-17T20:54:18.167Z,5.60
2018-12-17T20:56:46.734Z,5.50
2018-12-17T20:59:15.396Z,5.50
2018-12-17T21:01:43.923Z,5.50
2018-12-17T21:04:12.467Z,5.50
2018-12-17T21:06:41.023Z,5.50
2018-12-17T21:09:09.632Z,5.50
2018-12-17T21:11:38.203Z,5.50
2018-12-17T21:14:06.749Z,5.50
2018-12-17T21:16:35.313Z,5.50
2018-12-17T21:19:03.943Z,5.40
2018-12-17T21:21:32.510Z,5.40
2018-12-17T21:24:01.194Z,5.40
2018-12-17T21:26:29.734Z,5.40
2018-12-17T21:28:58.351Z,5.40
2018-12-17T21:31:26.887Z,5.40
2018-12-17T21:33:55.401Z,5.30
2018-12-17T21:36:23.890Z,5.30
2018-12-17T21:38:52.439Z,5.30
2018-12-17T21:41:21.026Z,5.30
2018-12-17T21:43:49.635Z,5.30
2018-12-17T21:46:19.343Z,5.30
2018-12-17T21:48:48.035Z,5.20
2018-12-17T21:51:16.733Z,5.20
2018-12-17T21:53:45.283Z,5.20
2018-12-17T21:56:14.007Z,5.20
2018-12-17T21:58:42.534Z,5.20
2018-12-17T22:01:11.095Z,5.20
2018-12-17T22:03:39.674Z,5.20
2018-12-17T22:06:08.446Z,5.20
2018-12-17T22:08:36.982Z,5.20
2018-12-17T22:11:05.667Z,5.20
2018-12-17T22:13:34.288Z,5.20
2018-12-17T22:16:02.784Z,5.20
2018-12-17T22:18:31.312Z,5.20
2018-12-17T22:20:59.864Z,5.20
2018-12-17T22:23:28.444Z,5.20
2018-12-17T22:25:57.042Z,5.20
2018-12-17T22:28:25.558Z,5.20
2018-12-17T22:30:54.079Z,5.20
2018-12-17T22:33:22.695Z,5.20
2018-12-17T22:35:51.272Z,5.20
2018-12-17T22:38:19.763Z,5.20
2018-12-17T22:40:48.306Z,5.20
2018-12-17T22:43:16.981Z,5.20
2018-12-17T22:45:45.469Z,5.20
2018-12-17T22:48:14.068Z,5.20
2018-12-17T22:50:42.632Z,5.20
2018-12-17T22:53:11.173Z,5.30
2018-12-17T22:55:39.717Z,5.30
2018-12-17T22:58:08.262Z,5.20
2018-12-17T23:00:36.970Z,5.20
2018-12-17T23:03:05.674Z,5.20
2018-12-17T23:05:34.491Z,5.20
2018-12-17T23:08:03.042Z,5.20
2018-12-17T23:10:45.341Z,5.20
2018-12-17T23:13:25.051Z,5.10
2018-12-17T23:16:04.837Z,5.10
2018-12-17T23:18:32.311Z,5.20
2018-12-17T23:21:01.081Z,5.10
2018-12-17T23:23:29.602Z,5.10
2018-12-17T23:25:58.165Z,5.10
2018-12-17T23:28:26.731Z,5.10
2018-12-17T23:30:55.376Z,5.10
2018-12-17T23:33:23.925Z,5.10
2018-12-17T23:35:52.457Z,5.10
2018-12-17T23:38:21.041Z,5.00
2018-12-17T23:40:49.667Z,5.00
2018-12-17T23:43:18.317Z,5.00
2018-12-17T23:45:46.972Z,5.00
2018-12-17T23:48:15.510Z,5.00
2018-12-17T23:50:44.371Z,4.90
2018-12-17T23:53:12.978Z,4.90
2018-12-17T23:55:41.508Z,5.00
2018-12-17T23:58:10.070Z,4.90
